sensor_id;sensor_type;location;lat;lon;timestamp;P1;durP1;ratioP1;P2;durP2;ratioP2
11418;SDS011;32800;44.876;13.880;2022-10-13T00:00:28;8.80;;;7.30;;
11418;SDS011;32800;44.876;13.880;2022-10-13T00:02:53;7.70;;;6.88;;
11418;SDS011;32800;44.876;13.880;2022-10-13T00:05:19;8.52;;;7.57;;
11418;SDS011;32800;44.876;13.880;2022-10-13T00:07:45;7.82;;;6.85;;
11418;SDS011;32800;44.876;13.880;2022-10-13T00:10:10;8.05;;;7.25;;
11418;SDS011;32800;44.876;13.880;2022-10-13T00:12:36;8.15;;;7.15;;
11418;SDS011;32800;44.876;13.880;2022-10-13T00:15:03;8.52;;;7.60;;
11418;SDS011;32800;44.876;13.880;2022-10-13T00:17:31;8.15;;;7.28;;
11418;SDS011;32800;44.876;13.880;2022-10-13T00:19:56;8.57;;;7.20;;
11418;SDS011;32800;44.876;13.880;2022-10-13T00:22:22;11.25;;;7.70;;
11418;SDS011;32800;44.876;13.880;2022-10-13T00:24:51;9.77;;;7.35;;
11418;SDS011;32800;44.876;13.880;2022-10-13T00:27:17;12.90;;;7.80;;
11418;SDS011;32800;44.876;13.880;2022-10-13T00:29:43;7.85;;;7.13;;
11418;SDS011;32800;44.876;13.880;2022-10-13T00:32:08;8.93;;;6.70;;
11418;SDS011;32800;44.876;13.880;2022-10-13T00:34:35;7.88;;;7.00;;
11418;SDS011;32800;44.876;13.880;2022-10-13T00:37:01;7.85;;;6.65;;
11418;SDS011;32800;44.876;13.880;2022-10-13T00:39:26;7.63;;;6.80;;
11418;SDS011;32800;44.876;13.880;2022-10-13T00:41:52;8.35;;;7.43;;
11418;SDS011;32800;44.876;13.880;2022-10-13T00:47:21;7.88;;;6.47;;
11418;SDS011;32800;44.876;13.880;2022-10-13T00:49:47;7.90;;;7.10;;
11418;SDS011;32800;44.876;13.880;2022-10-13T00:52:13;7.97;;;6.68;;
11418;SDS011;32800;44.876;13.880;2022-10-13T00:54:40;8.37;;;7.50;;
11418;SDS011;32800;44.876;13.880;2022-10-13T00:57:06;7.67;;;6.87;;
11418;SDS011;32800;44.876;13.880;2022-10-13T00:59:32;7.25;;;6.55;;
11418;SDS011;32800;44.876;13.880;2022-10-13T01:01:59;7.80;;;7.10;;
11418;SDS011;32800;44.876;13.880;2022-10-13T01:04:26;8.43;;;6.80;;
11418;SDS011;32800;44.876;13.880;2022-10-13T01:06:55;7.63;;;6.85;;
11418;SDS011;32800;44.876;13.880;2022-10-13T01:09:20;8.03;;;6.30;;
11418;SDS011;32800;44.876;13.880;2022-10-13T01:20:02;7.10;;;6.40;;
11418;SDS011;32800;44.876;13.880;2022-10-13T01:23:29;8.13;;;6.35;;
11418;SDS011;32800;44.876;13.880;2022-10-13T01:29:10;7.60;;;6.90;;
11418;SDS011;32800;44.876;13.880;2022-10-13T01:34:22;7.77;;;7.07;;
11418;SDS011;32800;44.876;13.880;2022-10-13T01:36:55;8.77;;;6.73;;
11418;SDS011;32800;44.876;13.880;2022-10-13T01:43:03;8.67;;;6.80;;
11418;SDS011;32800;44.876;13.880;2022-10-13T01:45:19;7.27;;;6.57;;
11418;SDS011;32800;44.876;13.880;2022-10-13T01:47:47;8.23;;;6.82;;
11418;SDS011;32800;44.876;13.880;2022-10-13T01:50:14;6.30;;;5.75;;
11418;SDS011;32800;44.876;13.880;2022-10-13T01:52:41;7.13;;;6.43;;
11418;SDS011;32800;44.876;13.880;2022-10-13T01:55:08;7.23;;;6.53;;
11418;SDS011;32800;44.876;13.880;2022-10-13T01:57:37;7.70;;;6.90;;
11418;SDS011;32800;44.876;13.880;2022-10-13T02:07:58;7.45;;;6.35;;
11418;SDS011;32800;44.876;13.880;2022-10-13T02:13:18;12.88;;;6.75;;
11418;SDS011;32800;44.876;13.880;2022-10-13T02:15:50;8.57;;;6.70;;
11418;SDS011;32800;44.876;13.880;2022-10-13T02:18:18;8.68;;;6.68;;
11418;SDS011;32800;44.876;13.880;2022-10-13T02:20:46;7.03;;;6.33;;
11418;SDS011;32800;44.876;13.880;2022-10-13T02:23:14;7.28;;;6.57;;
11418;SDS011;32800;44.876;13.880;2022-10-13T02:25:40;7.43;;;6.73;;
11418;SDS011;32800;44.876;13.880;2022-10-13T02:28:06;7.38;;;6.63;;
11418;SDS011;32800;44.876;13.880;2022-10-13T02:30:32;6.93;;;6.22;;
11418;SDS011;32800;44.876;13.880;2022-10-13T02:33:01;7.38;;;6.68;;
11418;SDS011;32800;44.876;13.880;2022-10-13T02:35:27;7.70;;;6.00;;
11418;SDS011;32800;44.876;13.880;2022-10-13T02:37:53;8.13;;;6.30;;
11418;SDS011;32800;44.876;13.880;2022-10-13T02:40:19;6.60;;;6.00;;
11418;SDS011;32800;44.876;13.880;2022-10-13T02:42:45;6.45;;;5.85;;
11418;SDS011;32800;44.876;13.880;2022-10-13T02:45:10;7.50;;;6.43;;
11418;SDS011;32800;44.876;13.880;2022-10-13T02:47:36;7.22;;;6.53;;
11418;SDS011;32800;44.876;13.880;2022-10-13T02:50:01;6.68;;;5.80;;
11418;SDS011;32800;44.876;13.880;2022-10-13T02:52:27;7.03;;;6.30;;
11418;SDS011;32800;44.876;13.880;2022-10-13T02:54:53;7.47;;;6.60;;
11418;SDS011;32800;44.876;13.880;2022-10-13T02:57:18;6.50;;;5.90;;
11418;SDS011;32800;44.876;13.880;2022-10-13T02:59:44;7.18;;;6.20;;
11418;SDS011;32800;44.876;13.880;2022-10-13T03:02:09;6.63;;;6.03;;
11418;SDS011;32800;44.876;13.880;2022-10-13T03:04:35;9.70;;;6.23;;
11418;SDS011;32800;44.876;13.880;2022-10-13T03:07:00;7.32;;;5.90;;
11418;SDS011;32800;44.876;13.880;2022-10-13T03:09:26;6.50;;;5.90;;
11418;SDS011;32800;44.876;13.880;2022-10-13T03:11:52;6.32;;;5.72;;
11418;SDS011;32800;44.876;13.880;2022-10-13T03:14:17;8.90;;;6.03;;
11418;SDS011;32800;44.876;13.880;2022-10-13T03:16:43;7.03;;;6.33;;
11418;SDS011;32800;44.876;13.880;2022-10-13T03:19:09;6.93;;;6.23;;
11418;SDS011;32800;44.876;13.880;2022-10-13T03:21:35;6.60;;;6.00;;
11418;SDS011;32800;44.876;13.880;2022-10-13T03:24:04;7.78;;;6.00;;
11418;SDS011;32800;44.876;13.880;2022-10-13T03:26:30;6.87;;;6.17;;
11418;SDS011;32800;44.876;13.880;2022-10-13T03:28:56;6.05;;;5.45;;
11418;SDS011;32800;44.876;13.880;2022-10-13T03:31:21;6.43;;;5.83;;
11418;SDS011;32800;44.876;13.880;2022-10-13T03:33:47;6.30;;;5.70;;
11418;SDS011;32800;44.876;13.880;2022-10-13T03:36:12;6.30;;;5.72;;
11418;SDS011;32800;44.876;13.880;2022-10-13T03:38:38;6.88;;;6.18;;
11418;SDS011;32800;44.876;13.880;2022-10-13T03:41:08;6.53;;;5.93;;
11418;SDS011;32800;44.876;13.880;2022-10-13T03:43:35;6.28;;;5.68;;
11418;SDS011;32800;44.876;13.880;2022-10-13T03:46:01;7.87;;;6.30;;
11418;SDS011;32800;44.876;13.880;2022-10-13T03:48:28;8.10;;;6.18;;
11418;SDS011;32800;44.876;13.880;2022-10-13T03:50:53;6.03;;;5.43;;
11418;SDS011;32800;44.876;13.880;2022-10-13T03:53:19;6.38;;;5.78;;
11418;SDS011;32800;44.876;13.880;2022-10-13T03:55:49;6.70;;;6.00;;
11418;SDS011;32800;44.876;13.880;2022-10-13T03:58:16;5.97;;;5.30;;
11418;SDS011;32800;44.876;13.880;2022-10-13T04:00:42;6.83;;;5.60;;
11418;SDS011;32800;44.876;13.880;2022-10-13T04:03:08;7.10;;;6.03;;
11418;SDS011;32800;44.876;13.880;2022-10-13T04:05:33;6.03;;;5.43;;
11418;SDS011;32800;44.876;13.880;2022-10-13T04:07:59;6.78;;;6.18;;
11418;SDS011;32800;44.876;13.880;2022-10-13T04:10:24;6.57;;;5.75;;
11418;SDS011;32800;44.876;13.880;2022-10-13T04:12:50;8.67;;;5.90;;
11418;SDS011;32800;44.876;13.880;2022-10-13T04:15:15;7.17;;;6.03;;
11418;SDS011;32800;44.876;13.880;2022-10-13T04:17:41;5.93;;;5.43;;
11418;SDS011;32800;44.876;13.880;2022-10-13T04:20:07;5.73;;;5.10;;
11418;SDS011;32800;44.876;13.880;2022-10-13T04:22:33;6.47;;;5.80;;
11418;SDS011;32800;44.876;13.880;2022-10-13T04:24:59;7.20;;;6.50;;
11418;SDS011;32800;44.876;13.880;2022-10-13T04:27:24;5.83;;;5.23;;
11418;SDS011;32800;44.876;13.880;2022-10-13T04:29:51;6.00;;;5.47;;
11418;SDS011;32800;44.876;13.880;2022-10-13T04:32:17;6.83;;;5.83;;
11418;SDS011;32800;44.876;13.880;2022-10-13T04:34:42;5.63;;;5.13;;
11418;SDS011;32800;44.876;13.880;2022-10-13T04:37:08;8.43;;;5.77;;
11418;SDS011;32800;44.876;13.880;2022-10-13T04:39:33;6.47;;;5.60;;
11418;SDS011;32800;44.876;13.880;2022-10-13T04:41:59;9.02;;;5.55;;
11418;SDS011;32800;44.876;13.880;2022-10-13T04:44:24;6.50;;;5.90;;
11418;SDS011;32800;44.876;13.880;2022-10-13T04:46:50;6.33;;;5.63;;
11418;SDS011;32800;44.876;13.880;2022-10-13T04:49:15;6.03;;;5.53;;
11418;SDS011;32800;44.876;13.880;2022-10-13T04:51:41;6.00;;;5.40;;
11418;SDS011;32800;44.876;13.880;2022-10-13T04:54:07;8.32;;;5.90;;
11418;SDS011;32800;44.876;13.880;2022-10-13T04:56:33;6.20;;;5.60;;
11418;SDS011;32800;44.876;13.880;2022-10-13T04:58:59;5.75;;;5.25;;
11418;SDS011;32800;44.876;13.880;2022-10-13T05:01:25;6.00;;;5.40;;
11418;SDS011;32800;44.876;13.880;2022-10-13T05:03:54;5.90;;;5.30;;
11418;SDS011;32800;44.876;13.880;2022-10-13T05:06:22;7.07;;;6.20;;
11418;SDS011;32800;44.876;13.880;2022-10-13T05:08:49;16.70;;;7.33;;
11418;SDS011;32800;44.876;13.880;2022-10-13T05:11:15;8.30;;;7.50;;
11418;SDS011;32800;44.876;13.880;2022-10-13T05:13:41;11.00;;;8.70;;
11418;SDS011;32800;44.876;13.880;2022-10-13T05:16:10;10.30;;;9.27;;
11418;SDS011;32800;44.876;13.880;2022-10-13T05:18:36;20.23;;;10.80;;
11418;SDS011;32800;44.876;13.880;2022-10-13T05:21:06;14.73;;;10.47;;
11418;SDS011;32800;44.876;13.880;2022-10-13T05:23:36;13.93;;;10.70;;
11418;SDS011;32800;44.876;13.880;2022-10-13T05:26:03;14.23;;;10.23;;
11418;SDS011;32800;44.876;13.880;2022-10-13T05:28:30;13.43;;;11.00;;
11418;SDS011;32800;44.876;13.880;2022-10-13T05:30:56;12.60;;;10.33;;
11418;SDS011;32800;44.876;13.880;2022-10-13T05:33:21;11.60;;;10.40;;
11418;SDS011;32800;44.876;13.880;2022-10-13T05:35:47;12.23;;;11.03;;
11418;SDS011;32800;44.876;13.880;2022-10-13T05:38:12;12.67;;;11.07;;
11418;SDS011;32800;44.876;13.880;2022-10-13T05:40:38;13.40;;;11.93;;
11418;SDS011;32800;44.876;13.880;2022-10-13T05:43:03;13.15;;;11.32;;
11418;SDS011;32800;44.876;13.880;2022-10-13T05:45:29;12.53;;;11.23;;
11418;SDS011;32800;44.876;13.880;2022-10-13T05:47:56;13.20;;;11.90;;
11418;SDS011;32800;44.876;13.880;2022-10-13T05:50:22;13.23;;;11.93;;
11418;SDS011;32800;44.876;13.880;2022-10-13T05:52:47;13.60;;;12.13;;
11418;SDS011;32800;44.876;13.880;2022-10-13T05:55:14;13.50;;;11.33;;
11418;SDS011;32800;44.876;13.880;2022-10-13T05:57:41;12.93;;;11.63;;
11418;SDS011;32800;44.876;13.880;2022-10-13T06:00:11;14.07;;;12.03;;
11418;SDS011;32800;44.876;13.880;2022-10-13T06:02:40;13.83;;;12.30;;
11418;SDS011;32800;44.876;13.880;2022-10-13T06:05:17;13.50;;;12.20;;
11418;SDS011;32800;44.876;13.880;2022-10-13T06:07:43;14.00;;;12.60;;
11418;SDS011;32800;44.876;13.880;2022-10-13T06:10:10;14.03;;;12.70;;
11418;SDS011;32800;44.876;13.880;2022-10-13T06:12:36;13.70;;;12.30;;
11418;SDS011;32800;44.876;13.880;2022-10-13T06:15:02;14.00;;;12.47;;
11418;SDS011;32800;44.876;13.880;2022-10-13T06:17:28;14.77;;;13.03;;
11418;SDS011;32800;44.876;13.880;2022-10-13T06:19:53;14.43;;;12.37;;
11418;SDS011;32800;44.876;13.880;2022-10-13T06:22:19;13.88;;;12.50;;
11418;SDS011;32800;44.876;13.880;2022-10-13T06:24:46;14.57;;;13.10;;
11418;SDS011;32800;44.876;13.880;2022-10-13T06:27:11;15.43;;;13.93;;
11418;SDS011;32800;44.876;13.880;2022-10-13T06:29:37;13.60;;;12.20;;
11418;SDS011;32800;44.876;13.880;2022-10-13T06:32:03;14.07;;;12.57;;
11418;SDS011;32800;44.876;13.880;2022-10-13T06:34:28;13.87;;;12.43;;
11418;SDS011;32800;44.876;13.880;2022-10-13T06:36:54;15.07;;;13.57;;
11418;SDS011;32800;44.876;13.880;2022-10-13T06:39:19;13.80;;;12.43;;
11418;SDS011;32800;44.876;13.880;2022-10-13T06:41:45;15.17;;;13.43;;
11418;SDS011;32800;44.876;13.880;2022-10-13T06:44:10;15.97;;;14.37;;
11418;SDS011;32800;44.876;13.880;2022-10-13T06:46:36;15.37;;;13.77;;
11418;SDS011;32800;44.876;13.880;2022-10-13T06:49:02;15.37;;;13.77;;
11418;SDS011;32800;44.876;13.880;2022-10-13T06:51:27;15.05;;;13.55;;
11418;SDS011;32800;44.876;13.880;2022-10-13T06:53:54;15.00;;;13.53;;
11418;SDS011;32800;44.876;13.880;2022-10-13T06:56:20;16.80;;;14.43;;
11418;SDS011;32800;44.876;13.880;2022-10-13T06:58:47;16.40;;;13.87;;
11418;SDS011;32800;44.876;13.880;2022-10-13T07:01:13;16.37;;;14.67;;
11418;SDS011;32800;44.876;13.880;2022-10-13T07:03:39;16.50;;;14.80;;
11418;SDS011;32800;44.876;13.880;2022-10-13T07:06:05;16.67;;;14.97;;
11418;SDS011;32800;44.876;13.880;2022-10-13T07:08:31;15.20;;;13.70;;
11418;SDS011;32800;44.876;13.880;2022-10-13T07:10:58;16.57;;;14.13;;
11418;SDS011;32800;44.876;13.880;2022-10-13T07:13:23;15.47;;;13.97;;
11418;SDS011;32800;44.876;13.880;2022-10-13T07:15:49;16.10;;;14.40;;
11418;SDS011;32800;44.876;13.880;2022-10-13T07:18:15;16.83;;;14.83;;
11418;SDS011;32800;44.876;13.880;2022-10-13T07:20:40;17.23;;;15.43;;
11418;SDS011;32800;44.876;13.880;2022-10-13T07:23:06;17.03;;;14.37;;
11418;SDS011;32800;44.876;13.880;2022-10-13T07:25:31;16.83;;;15.10;;
11418;SDS011;32800;44.876;13.880;2022-10-13T07:27:57;15.87;;;14.17;;
11418;SDS011;32800;44.876;13.880;2022-10-13T07:30:24;17.90;;;15.47;;
11418;SDS011;32800;44.876;13.880;2022-10-13T07:32:50;15.63;;;14.03;;
11418;SDS011;32800;44.876;13.880;2022-10-13T07:35:15;17.00;;;15.20;;
11418;SDS011;32800;44.876;13.880;2022-10-13T07:37:41;17.50;;;13.97;;
11418;SDS011;32800;44.876;13.880;2022-10-13T07:40:07;16.73;;;14.93;;
11418;SDS011;32800;44.876;13.880;2022-10-13T07:42:33;16.57;;;14.60;;
11418;SDS011;32800;44.876;13.880;2022-10-13T07:44:58;17.97;;;14.33;;
11418;SDS011;32800;44.876;13.880;2022-10-13T07:47:24;16.97;;;15.03;;
11418;SDS011;32800;44.876;13.880;2022-10-13T07:49:50;16.63;;;14.83;;
11418;SDS011;32800;44.876;13.880;2022-10-13T07:52:16;16.43;;;14.67;;
11418;SDS011;32800;44.876;13.880;2022-10-13T07:54:41;16.23;;;14.50;;
11418;SDS011;32800;44.876;13.880;2022-10-13T07:57:07;16.17;;;13.83;;
11418;SDS011;32800;44.876;13.880;2022-10-13T07:59:33;15.13;;;13.60;;
11418;SDS011;32800;44.876;13.880;2022-10-13T08:01:59;16.00;;;14.33;;
11418;SDS011;32800;44.876;13.880;2022-10-13T08:04:32;16.27;;;14.57;;
11418;SDS011;32800;44.876;13.880;2022-10-13T08:06:58;16.33;;;14.43;;
11418;SDS011;32800;44.876;13.880;2022-10-13T08:09:24;17.37;;;14.60;;
11418;SDS011;32800;44.876;13.880;2022-10-13T08:11:50;16.70;;;14.67;;
11418;SDS011;32800;44.876;13.880;2022-10-13T08:14:16;15.80;;;14.27;;
11418;SDS011;32800;44.876;13.880;2022-10-13T08:16:41;16.20;;;14.60;;
11418;SDS011;32800;44.876;13.880;2022-10-13T08:19:10;15.47;;;13.97;;
11418;SDS011;32800;44.876;13.880;2022-10-13T08:21:39;16.25;;;14.55;;
11418;SDS011;32800;44.876;13.880;2022-10-13T08:24:05;16.20;;;14.50;;
11418;SDS011;32800;44.876;13.880;2022-10-13T08:26:31;16.70;;;14.97;;
11418;SDS011;32800;44.876;13.880;2022-10-13T08:28:57;16.10;;;14.37;;
11418;SDS011;32800;44.876;13.880;2022-10-13T08:31:23;15.80;;;14.17;;
11418;SDS011;32800;44.876;13.880;2022-10-13T08:33:48;16.70;;;15.00;;
11418;SDS011;32800;44.876;13.880;2022-10-13T08:36:16;17.33;;;15.53;;
11418;SDS011;32800;44.876;13.880;2022-10-13T08:38:43;16.40;;;14.77;;
11418;SDS011;32800;44.876;13.880;2022-10-13T08:41:15;16.40;;;14.63;;
11418;SDS011;32800;44.876;13.880;2022-10-13T08:43:47;15.63;;;14.17;;
11418;SDS011;32800;44.876;13.880;2022-10-13T08:46:17;15.80;;;14.20;;
11418;SDS011;32800;44.876;13.880;2022-10-13T08:48:45;17.50;;;15.67;;
11418;SDS011;32800;44.876;13.880;2022-10-13T08:51:11;16.87;;;13.67;;
11418;SDS011;32800;44.876;13.880;2022-10-13T08:53:39;16.70;;;15.00;;
11418;SDS011;32800;44.876;13.880;2022-10-13T08:56:06;15.77;;;14.17;;
11418;SDS011;32800;44.876;13.880;2022-10-13T08:58:36;17.83;;;15.43;;
11418;SDS011;32800;44.876;13.880;2022-10-13T09:06:25;16.73;;;15.02;;
11418;SDS011;32800;44.876;13.880;2022-10-13T09:09:00;17.07;;;15.33;;
11418;SDS011;32800;44.876;13.880;2022-10-13T09:11:31;16.83;;;15.03;;
11418;SDS011;32800;44.876;13.880;2022-10-13T09:14:00;18.03;;;16.20;;
11418;SDS011;32800;44.876;13.880;2022-10-13T09:16:33;18.53;;;16.63;;
11418;SDS011;32800;44.876;13.880;2022-10-13T09:19:32;17.20;;;15.40;;
11418;SDS011;32800;44.876;13.880;2022-10-13T09:35:38;20.23;;;17.00;;
11418;SDS011;32800;44.876;13.880;2022-10-13T09:38:05;19.45;;;17.45;;
11418;SDS011;32800;44.876;13.880;2022-10-13T09:43:32;19.55;;;17.13;;
11418;SDS011;32800;44.876;13.880;2022-10-13T09:45:59;19.35;;;17.35;;
11418;SDS011;32800;44.876;13.880;2022-10-13T09:48:31;22.63;;;17.30;;
11418;SDS011;32800;44.876;13.880;2022-10-13T09:50:57;21.40;;;17.27;;
11418;SDS011;32800;44.876;13.880;2022-10-13T09:53:38;19.35;;;16.73;;
11418;SDS011;32800;44.876;13.880;2022-10-13T10:01:48;21.60;;;16.95;;
11418;SDS011;32800;44.876;13.880;2022-10-13T10:04:25;18.55;;;16.63;;
11418;SDS011;32800;44.876;13.880;2022-10-13T10:06:56;20.25;;;17.65;;
11418;SDS011;32800;44.876;13.880;2022-10-13T10:09:33;19.42;;;16.95;;
11418;SDS011;32800;44.876;13.880;2022-10-13T10:12:11;20.42;;;17.77;;
11418;SDS011;32800;44.876;13.880;2022-10-13T10:14:40;19.73;;;17.73;;
11418;SDS011;32800;44.876;13.880;2022-10-13T10:17:11;19.30;;;17.30;;
11418;SDS011;32800;44.876;13.880;2022-10-13T10:19:47;19.58;;;17.48;;
11418;SDS011;32800;44.876;13.880;2022-10-13T10:22:29;18.67;;;16.85;;
11418;SDS011;32800;44.876;13.880;2022-10-13T10:27:37;21.00;;;18.33;;
11418;SDS011;32800;44.876;13.880;2022-10-13T10:30:07;18.40;;;16.42;;
11418;SDS011;32800;44.876;13.880;2022-10-13T10:38:50;20.30;;;17.33;;
11418;SDS011;32800;44.876;13.880;2022-10-13T10:43:59;20.33;;;17.58;;
11418;SDS011;32800;44.876;13.880;2022-10-13T10:46:39;18.90;;;17.02;;
11418;SDS011;32800;44.876;13.880;2022-10-13T10:49:29;19.67;;;17.58;;
11418;SDS011;32800;44.876;13.880;2022-10-13T10:52:00;18.63;;;16.63;;
11418;SDS011;32800;44.876;13.880;2022-10-13T11:00:04;18.13;;;16.25;;
11418;SDS011;32800;44.876;13.880;2022-10-13T11:05:13;19.60;;;17.08;;
11418;SDS011;32800;44.876;13.880;2022-10-13T11:21:11;19.27;;;17.25;;
11418;SDS011;32800;44.876;13.880;2022-10-13T11:23:41;18.55;;;16.70;;
11418;SDS011;32800;44.876;13.880;2022-10-13T11:26:51;18.95;;;17.00;;
11418;SDS011;32800;44.876;13.880;2022-10-13T11:29:16;19.77;;;17.77;;
11418;SDS011;32800;44.876;13.880;2022-10-13T11:31:51;18.98;;;16.98;;
11418;SDS011;32800;44.876;13.880;2022-10-13T11:34:25;19.25;;;17.20;;
11418;SDS011;32800;44.876;13.880;2022-10-13T11:36:54;19.83;;;17.15;;
11418;SDS011;32800;44.876;13.880;2022-10-13T11:50:17;19.70;;;17.67;;
11418;SDS011;32800;44.876;13.880;2022-10-13T11:55:35;19.02;;;17.05;;
11418;SDS011;32800;44.876;13.880;2022-10-13T11:58:16;20.75;;;17.80;;
11418;SDS011;32800;44.876;13.880;2022-10-13T12:00:55;19.85;;;17.33;;
11418;SDS011;32800;44.876;13.880;2022-10-13T12:03:23;19.38;;;17.38;;
11418;SDS011;32800;44.876;13.880;2022-10-13T12:05:51;18.63;;;16.80;;
11418;SDS011;32800;44.876;13.880;2022-10-13T12:08:17;20.50;;;17.48;;
11418;SDS011;32800;44.876;13.880;2022-10-13T12:10:44;23.25;;;18.92;;
11418;SDS011;32800;44.876;13.880;2022-10-13T12:16:02;19.75;;;17.65;;
11418;SDS011;32800;44.876;13.880;2022-10-13T12:21:14;19.45;;;17.42;;
11418;SDS011;32800;44.876;13.880;2022-10-13T12:23:45;20.83;;;17.60;;
11418;SDS011;32800;44.876;13.880;2022-10-13T12:26:21;22.35;;;18.30;;
11418;SDS011;32800;44.876;13.880;2022-10-13T12:29:23;20.60;;;17.73;;
11418;SDS011;32800;44.876;13.880;2022-10-13T12:34:19;21.40;;;19.05;;
11418;SDS011;32800;44.876;13.880;2022-10-13T12:36:50;26.38;;;20.25;;
11418;SDS011;32800;44.876;13.880;2022-10-13T12:39:20;30.98;;;22.88;;
11418;SDS011;32800;44.876;13.880;2022-10-13T12:41:49;28.13;;;23.17;;
11418;SDS011;32800;44.876;13.880;2022-10-13T12:44:19;27.90;;;22.40;;
11418;SDS011;32800;44.876;13.880;2022-10-13T12:46:49;25.15;;;20.83;;
11418;SDS011;32800;44.876;13.880;2022-10-13T12:51:50;26.15;;;20.92;;
11418;SDS011;32800;44.876;13.880;2022-10-13T12:54:39;23.02;;;18.95;;
11418;SDS011;32800;44.876;13.880;2022-10-13T12:57:15;21.63;;;19.33;;
11418;SDS011;32800;44.876;13.880;2022-10-13T12:59:47;25.40;;;20.77;;
11418;SDS011;32800;44.876;13.880;2022-10-13T13:02:23;21.45;;;18.73;;
11418;SDS011;32800;44.876;13.880;2022-10-13T13:04:50;22.65;;;19.25;;
11418;SDS011;32800;44.876;13.880;2022-10-13T13:07:29;23.98;;;19.20;;
11418;SDS011;32800;44.876;13.880;2022-10-13T13:12:47;21.67;;;18.98;;
11418;SDS011;32800;44.876;13.880;2022-10-13T13:15:18;21.70;;;19.30;;
11418;SDS011;32800;44.876;13.880;2022-10-13T13:20:47;22.10;;;17.58;;
11418;SDS011;32800;44.876;13.880;2022-10-13T13:23:12;18.90;;;16.85;;
11418;SDS011;32800;44.876;13.880;2022-10-13T13:25:38;21.80;;;17.50;;
11418;SDS011;32800;44.876;13.880;2022-10-13T13:28:08;19.92;;;17.42;;
11418;SDS011;32800;44.876;13.880;2022-10-13T13:30:35;24.60;;;18.33;;
11418;SDS011;32800;44.876;13.880;2022-10-13T13:33:01;20.10;;;18.02;;
11418;SDS011;32800;44.876;13.880;2022-10-13T13:35:26;19.38;;;17.42;;
11418;SDS011;32800;44.876;13.880;2022-10-13T13:37:52;20.63;;;17.90;;
11418;SDS011;32800;44.876;13.880;2022-10-13T13:40:25;19.80;;;17.75;;
11418;SDS011;32800;44.876;13.880;2022-10-13T13:42:51;19.15;;;17.15;;
11418;SDS011;32800;44.876;13.880;2022-10-13T13:45:19;19.55;;;17.35;;
11418;SDS011;32800;44.876;13.880;2022-10-13T13:47:46;20.65;;;17.48;;
11418;SDS011;32800;44.876;13.880;2022-10-13T13:52:45;18.75;;;16.85;;
11418;SDS011;32800;44.876;13.880;2022-10-13T13:55:10;19.67;;;17.67;;
11418;SDS011;32800;44.876;13.880;2022-10-13T13:57:36;19.58;;;17.52;;
11418;SDS011;32800;44.876;13.880;2022-10-13T14:00:02;18.98;;;16.98;;
11418;SDS011;32800;44.876;13.880;2022-10-13T14:02:28;18.83;;;16.92;;
11418;SDS011;32800;44.876;13.880;2022-10-13T14:04:54;19.33;;;17.40;;
11418;SDS011;32800;44.876;13.880;2022-10-13T14:07:19;19.08;;;17.17;;
11418;SDS011;32800;44.876;13.880;2022-10-13T14:09:45;18.98;;;16.92;;
11418;SDS011;32800;44.876;13.880;2022-10-13T14:12:11;21.15;;;17.55;;
11418;SDS011;32800;44.876;13.880;2022-10-13T14:14:36;18.88;;;16.83;;
11418;SDS011;32800;44.876;13.880;2022-10-13T14:17:02;19.25;;;17.25;;
11418;SDS011;32800;44.876;13.880;2022-10-13T14:19:29;20.52;;;16.80;;
11418;SDS011;32800;44.876;13.880;2022-10-13T14:21:55;19.92;;;17.92;;
11418;SDS011;32800;44.876;13.880;2022-10-13T14:24:20;19.73;;;16.85;;
11418;SDS011;32800;44.876;13.880;2022-10-13T14:26:46;22.40;;;17.83;;
11418;SDS011;32800;44.876;13.880;2022-10-13T14:29:12;19.23;;;16.90;;
11418;SDS011;32800;44.876;13.880;2022-10-13T14:31:37;19.27;;;16.98;;
11418;SDS011;32800;44.876;13.880;2022-10-13T14:34:03;20.52;;;17.45;;
11418;SDS011;32800;44.876;13.880;2022-10-13T14:36:29;21.20;;;17.50;;
11418;SDS011;32800;44.876;13.880;2022-10-13T14:38:54;19.23;;;17.33;;
11418;SDS011;32800;44.876;13.880;2022-10-13T14:41:20;19.70;;;17.60;;
11418;SDS011;32800;44.876;13.880;2022-10-13T14:43:46;19.55;;;17.23;;
11418;SDS011;32800;44.876;13.880;2022-10-13T14:46:11;19.67;;;16.73;;
11418;SDS011;32800;44.876;13.880;2022-10-13T14:48:37;18.63;;;16.75;;
11418;SDS011;32800;44.876;13.880;2022-10-13T14:51:06;21.95;;;17.35;;
11418;SDS011;32800;44.876;13.880;2022-10-13T14:53:34;19.85;;;16.77;;
11418;SDS011;32800;44.876;13.880;2022-10-13T14:56:00;19.00;;;17.20;;
11418;SDS011;32800;44.876;13.880;2022-10-13T14:58:26;19.38;;;17.38;;
11418;SDS011;32800;44.876;13.880;2022-10-13T15:00:52;19.40;;;17.33;;
11418;SDS011;32800;44.876;13.880;2022-10-13T15:03:19;18.80;;;16.73;;
11418;SDS011;32800;44.876;13.880;2022-10-13T15:05:45;20.88;;;17.67;;
11418;SDS011;32800;44.876;13.880;2022-10-13T15:08:11;19.35;;;17.38;;
11418;SDS011;32800;44.876;13.880;2022-10-13T15:10:36;19.25;;;17.13;;
11418;SDS011;32800;44.876;13.880;2022-10-13T15:13:02;23.38;;;19.80;;
11418;SDS011;32800;44.876;13.880;2022-10-13T15:15:28;25.17;;;20.77;;
11418;SDS011;32800;44.876;13.880;2022-10-13T15:17:54;36.25;;;27.02;;
11418;SDS011;32800;44.876;13.880;2022-10-13T15:20:19;47.92;;;36.00;;
11418;SDS011;32800;44.876;13.880;2022-10-13T15:22:45;58.53;;;43.08;;
11418;SDS011;32800;44.876;13.880;2022-10-13T15:25:11;66.93;;;46.30;;
11418;SDS011;32800;44.876;13.880;2022-10-13T15:27:38;59.28;;;45.25;;
11418;SDS011;32800;44.876;13.880;2022-10-13T15:30:05;52.05;;;39.50;;
11418;SDS011;32800;44.876;13.880;2022-10-13T15:32:31;44.28;;;35.47;;
11418;SDS011;32800;44.876;13.880;2022-10-13T15:34:56;39.13;;;30.52;;
11418;SDS011;32800;44.876;13.880;2022-10-13T15:37:22;33.83;;;27.30;;
11418;SDS011;32800;44.876;13.880;2022-10-13T15:39:48;32.50;;;25.65;;
11418;SDS011;32800;44.876;13.880;2022-10-13T15:42:13;29.65;;;24.10;;
11418;SDS011;32800;44.876;13.880;2022-10-13T15:44:39;27.38;;;22.73;;
11418;SDS011;32800;44.876;13.880;2022-10-13T15:47:04;25.67;;;21.08;;
11418;SDS011;32800;44.876;13.880;2022-10-13T15:49:30;24.08;;;20.73;;
11418;SDS011;32800;44.876;13.880;2022-10-13T15:52:01;24.27;;;20.17;;
11418;SDS011;32800;44.876;13.880;2022-10-13T15:54:27;26.48;;;20.45;;
11418;SDS011;32800;44.876;13.880;2022-10-13T15:56:52;24.38;;;20.27;;
11418;SDS011;32800;44.876;13.880;2022-10-13T15:59:18;24.15;;;19.63;;
11418;SDS011;32800;44.876;13.880;2022-10-13T16:01:43;23.30;;;19.52;;
11418;SDS011;32800;44.876;13.880;2022-10-13T16:04:09;24.40;;;19.95;;
11418;SDS011;32800;44.876;13.880;2022-10-13T16:06:34;25.98;;;19.02;;
11418;SDS011;32800;44.876;13.880;2022-10-13T16:09:01;22.20;;;18.40;;
11418;SDS011;32800;44.876;13.880;2022-10-13T16:11:27;23.77;;;18.33;;
11418;SDS011;32800;44.876;13.880;2022-10-13T16:13:52;24.65;;;17.45;;
11418;SDS011;32800;44.876;13.880;2022-10-13T16:16:18;21.48;;;19.05;;
11418;SDS011;32800;44.876;13.880;2022-10-13T16:18:44;20.88;;;18.52;;
11418;SDS011;32800;44.876;13.880;2022-10-13T16:21:10;21.60;;;18.50;;
11418;SDS011;32800;44.876;13.880;2022-10-13T16:23:41;20.65;;;17.52;;